createdAt,value
2019-02-28T00:00:19.106Z,0.00
2019-02-28T00:01:19.086Z,0.00
2019-02-28T00:02:22.417Z,0.00
2019-02-28T00:03:20.383Z,0.00
2019-02-28T00:04:19.059Z,0.00
2019-02-28T00:05:19.056Z,0.00
2019-02-28T00:06:19.033Z,0.00
2019-02-28T00:07:19.023Z,0.00
2019-02-28T00:08:19.012Z,0.00
2019-02-28T00:09:19.056Z,0.00
2019-02-28T00:10:18.998Z,0.00
2019-02-28T00:11:18.985Z,0.00
2019-02-28T00:12:18.969Z,0.00
2019-02-28T00:13:21.487Z,0.00
2019-02-28T00:14:18.945Z,0.00
2019-02-28T00:15:18.948Z,0.00
2019-02-28T00:16:18.936Z,0.00
2019-02-28T00:17:18.915Z,0.00
2019-02-28T00:18:18.908Z,0.00
2019-02-28T00:19:21.032Z,0.00
2019-02-28T00:20:18.893Z,0.00
2019-02-28T00:21:18.879Z,0.00
2019-02-28T00:22:18.867Z,0.00
2019-02-28T00:23:19.282Z,0.00
2019-02-28T00:24:18.842Z,0.00
2019-02-28T00:25:18.842Z,0.00
2019-02-28T00:26:18.819Z,0.00
2019-02-28T00:27:21.931Z,0.00
2019-02-28T00:28:18.798Z,0.00
2019-02-28T00:29:18.789Z,0.00
2019-02-28T00:30:18.793Z,0.00
2019-02-28T00:31:18.767Z,0.00
2019-02-28T00:32:21.381Z,0.00
2019-02-28T00:33:19.745Z,0.00
2019-02-28T00:34:18.735Z,0.00
2019-02-28T00:35:18.735Z,0.00
2019-02-28T00:36:19.157Z,0.00
2019-02-28T00:37:18.704Z,0.00
2019-02-28T00:38:18.698Z,0.00
2019-02-28T00:39:18.686Z,0.00
2019-02-28T00:40:18.683Z,0.00
2019-02-28T00:41:18.663Z,0.00
2019-02-28T00:42:18.649Z,0.00
2019-02-28T00:43:18.639Z,0.00
2019-02-28T00:44:18.630Z,0.00
2019-02-28T00:45:18.639Z,0.00
2019-02-28T00:46:18.608Z,0.00
2019-02-28T00:47:18.598Z,0.00
2019-02-28T00:48:21.572Z,0.00
2019-02-28T00:49:18.576Z,0.00
2019-02-28T00:50:18.564Z,0.00
2019-02-28T00:51:18.564Z,0.00
2019-02-28T00:52:18.545Z,0.00
2019-02-28T00:53:18.533Z,0.00
2019-02-28T00:54:18.522Z,0.00
2019-02-28T00:55:18.513Z,0.00
2019-02-28T00:56:18.513Z,0.00
2019-02-28T00:57:18.491Z,0.00
2019-02-28T00:58:18.478Z,0.00
2019-02-28T00:59:18.469Z,0.00
2019-02-28T01:00:18.458Z,0.00
2019-02-28T01:01:18.460Z,0.00
2019-02-28T01:02:18.692Z,0.00
2019-02-28T01:03:18.426Z,0.00
2019-02-28T01:04:18.415Z,0.00
2019-02-28T01:05:18.404Z,0.00
2019-02-28T01:06:18.403Z,0.00
2019-02-28T01:07:18.384Z,0.00
2019-02-28T01:08:19.150Z,0.00
2019-02-28T01:09:18.363Z,0.00
2019-02-28T01:10:18.351Z,0.00
2019-02-28T01:11:18.358Z,0.00
2019-02-28T01:12:19.354Z,0.00
2019-02-28T01:13:18.325Z,0.00
2019-02-28T01:14:18.307Z,0.00
2019-02-28T01:15:18.307Z,0.00
2019-02-28T01:16:19.416Z,0.00
2019-02-28T01:17:18.276Z,0.00
2019-02-28T01:18:18.265Z,0.00
2019-02-28T01:19:18.258Z,0.00
2019-02-28T01:20:18.247Z,0.00
2019-02-28T01:21:18.246Z,0.00
2019-02-28T01:22:18.223Z,0.00
2019-02-28T01:23:18.211Z,0.00
2019-02-28T01:24:18.204Z,0.00
2019-02-28T01:25:18.193Z,0.00
2019-02-28T01:26:18.203Z,0.00
2019-02-28T01:27:20.903Z,0.00
2019-02-28T01:28:18.163Z,0.00
2019-02-28T01:29:18.151Z,0.00
2019-02-28T01:30:18.137Z,0.00
2019-02-28T01:31:18.130Z,0.00
2019-02-28T01:32:18.129Z,0.00
2019-02-28T01:33:18.108Z,0.00
2019-02-28T01:34:18.097Z,0.00
2019-02-28T01:35:18.083Z,0.00
2019-02-28T01:36:18.075Z,0.00
2019-02-28T01:37:20.809Z,0.00
2019-02-28T01:38:18.058Z,0.00
2019-02-28T01:39:18.042Z,0.00
2019-02-28T01:40:18.032Z,0.00
2019-02-28T01:41:18.021Z,0.00
2019-02-28T01:42:20.081Z,0.00
2019-02-28T01:43:18.005Z,0.00
2019-02-28T01:44:17.988Z,0.00
2019-02-28T01:45:17.979Z,0.00
2019-02-28T01:46:17.973Z,0.00
2019-02-28T01:47:19.920Z,0.00
2019-02-28T01:48:17.946Z,0.00
2019-02-28T01:49:17.942Z,0.00
2019-02-28T01:50:17.926Z,0.00
2019-02-28T01:51:17.917Z,0.00
2019-02-28T01:52:17.919Z,0.00
2019-02-28T01:53:19.556Z,0.00
2019-02-28T01:54:17.887Z,0.00
2019-02-28T01:55:17.881Z,0.00
2019-02-28T01:56:17.863Z,0.00
2019-02-28T01:57:17.865Z,0.00
2019-02-28T01:58:17.845Z,0.00
2019-02-28T01:59:17.831Z,0.00
2019-02-28T02:00:17.822Z,0.00
2019-02-28T02:01:17.820Z,0.00
2019-02-28T02:02:17.812Z,0.00
2019-02-28T02:03:17.789Z,0.00
2019-02-28T02:04:17.780Z,0.00
2019-02-28T02:05:18.055Z,0.00
2019-02-28T02:06:17.761Z,0.00
2019-02-28T02:07:17.759Z,0.00
2019-02-28T02:08:17.738Z,0.00
2019-02-28T02:09:17.729Z,0.00
2019-02-28T02:10:21.217Z,0.00
2019-02-28T02:11:17.711Z,0.00
2019-02-28T02:12:17.710Z,0.00
2019-02-28T02:13:17.686Z,0.00
2019-02-28T02:14:17.674Z,0.00
2019-02-28T02:15:17.930Z,0.00
2019-02-28T02:16:17.657Z,0.00
2019-02-28T02:17:17.656Z,0.00
2019-02-28T02:18:17.631Z,0.00
2019-02-28T02:19:18.701Z,0.00
2019-02-28T02:20:17.614Z,0.00
2019-02-28T02:21:17.603Z,0.00
2019-02-28T02:22:17.604Z,0.00
2019-02-28T02:23:18.819Z,0.00
2019-02-28T02:24:17.569Z,0.00
2019-02-28T02:25:17.560Z,0.00
2019-02-28T02:26:17.547Z,0.00
2019-02-28T02:27:19.498Z,0.00
2019-02-28T02:28:17.548Z,0.00
2019-02-28T02:29:17.515Z,0.00
2019-02-28T02:30:17.511Z,0.00
2019-02-28T02:31:17.496Z,0.00
2019-02-28T02:32:17.490Z,0.00
2019-02-28T02:33:17.490Z,0.00
2019-02-28T02:34:17.464Z,0.00
2019-02-28T02:35:17.465Z,0.00
2019-02-28T02:36:17.747Z,0.00
2019-02-28T02:37:17.432Z,0.00
2019-02-28T02:38:17.436Z,0.00
2019-02-28T02:39:17.881Z,0.00
2019-02-28T02:40:17.436Z,0.00
2019-02-28T02:41:17.404Z,0.00
2019-02-28T02:42:17.380Z,0.00
2019-02-28T02:43:21.861Z,0.00
2019-02-28T02:44:18.357Z,0.00
2019-02-28T02:45:17.349Z,0.00
2019-02-28T02:46:20.393Z,0.00
2019-02-28T02:47:17.325Z,0.00
2019-02-28T02:48:17.328Z,0.00
2019-02-28T02:49:19.882Z,0.00
2019-02-28T02:50:17.296Z,0.00
2019-02-28T02:51:17.285Z,0.00
2019-02-28T02:52:17.278Z,0.00
2019-02-28T02:53:17.274Z,0.00
2019-02-28T02:54:19.652Z,0.00
2019-02-28T02:55:17.241Z,0.00
2019-02-28T02:56:17.229Z,0.00
2019-02-28T02:57:17.232Z,0.00
2019-02-28T02:58:17.278Z,0.00
2019-02-28T02:59:17.199Z,0.00
2019-02-28T03:00:17.191Z,0.00
2019-02-28T03:01:17.180Z,0.00
2019-02-28T03:02:17.167Z,0.00
2019-02-28T03:03:17.168Z,0.00
2019-02-28T03:04:23.101Z,0.00
2019-02-28T03:05:18.135Z,0.00
2019-02-28T03:06:17.137Z,0.00
2019-02-28T03:07:23.230Z,0.00
2019-02-28T03:08:18.120Z,0.00
2019-02-28T03:09:17.095Z,0.00
2019-02-28T03:10:17.996Z,0.00
2019-02-28T03:11:17.073Z,0.00
2019-02-28T03:12:17.065Z,0.00
2019-02-28T03:13:17.065Z,0.00
2019-02-28T03:14:17.518Z,0.00
2019-02-28T03:15:17.047Z,0.00
2019-02-28T03:16:17.022Z,0.00
2019-02-28T03:17:17.010Z,0.00
2019-02-28T03:18:20.443Z,0.00
2019-02-28T03:19:16.990Z,0.00
2019-02-28T03:20:16.997Z,0.00
2019-02-28T03:21:16.968Z,0.00
2019-02-28T03:22:16.957Z,0.00
2019-02-28T03:23:16.961Z,0.00
2019-02-28T03:24:16.959Z,0.00
2019-02-28T03:25:16.938Z,0.00
2019-02-28T03:26:16.917Z,0.00
2019-02-28T03:27:18.992Z,0.00
2019-02-28T03:28:16.906Z,0.00
2019-02-28T03:29:16.884Z,0.00
2019-02-28T03:30:31.959Z,0.00
2019-02-28T03:31:17.873Z,0.00
2019-02-28T03:32:16.857Z,0.00
2019-02-28T03:33:25.203Z,0.00
2019-02-28T03:34:17.846Z,0.00
2019-02-28T03:35:16.832Z,0.00
2019-02-28T03:36:16.960Z,0.00
2019-02-28T03:37:16.799Z,0.00
2019-02-28T03:38:16.799Z,0.00
2019-02-28T03:39:16.785Z,0.00
2019-02-28T03:40:16.768Z,0.00
2019-02-28T03:41:18.247Z,0.00
2019-02-28T03:42:16.745Z,0.00
2019-02-28T03:43:16.746Z,0.00
2019-02-28T03:44:21.353Z,0.00
2019-02-28T03:45:17.730Z,0.00
2019-02-28T03:46:16.705Z,0.00
2019-02-28T03:47:22.737Z,0.00
2019-02-28T03:48:17.699Z,0.00
2019-02-28T03:49:16.673Z,0.00
2019-02-28T03:50:16.671Z,0.00
2019-02-28T03:51:16.659Z,0.00
2019-02-28T03:52:16.644Z,0.00
2019-02-28T03:53:19.881Z,0.00
2019-02-28T03:54:16.619Z,0.00
2019-02-28T03:55:16.610Z,0.00
2019-02-28T03:56:16.615Z,0.00
2019-02-28T03:57:16.587Z,0.00
2019-02-28T03:58:16.612Z,0.00
2019-02-28T03:59:18.847Z,0.00
2019-02-28T04:00:16.568Z,0.00
2019-02-28T04:01:16.547Z,0.00
2019-02-28T04:02:20.756Z,0.00
2019-02-28T04:03:17.535Z,0.00
2019-02-28T04:04:16.517Z,0.00
2019-02-28T04:05:16.504Z,0.00
2019-02-28T04:06:16.496Z,0.00
2019-02-28T04:07:17.086Z,0.00
2019-02-28T04:08:16.484Z,0.00
2019-02-28T04:09:16.459Z,0.00
2019-02-28T04:10:20.558Z,0.00
2019-02-28T04:11:17.449Z,0.00
2019-02-28T04:12:16.430Z,0.00
2019-02-28T04:13:19.130Z,0.00
2019-02-28T04:14:16.406Z,0.00
2019-02-28T04:15:16.407Z,0.00
2019-02-28T04:16:16.387Z,0.00
2019-02-28T04:17:16.374Z,0.00
2019-02-28T04:18:16.368Z,0.00
2019-02-28T04:19:21.205Z,0.00
2019-02-28T04:20:17.343Z,0.00
2019-02-28T04:21:16.338Z,0.00
2019-02-28T04:22:19.662Z,0.00
2019-02-28T04:23:17.316Z,0.00
2019-02-28T04:24:16.313Z,0.00
2019-02-28T04:25:22.910Z,0.00
2019-02-28T04:26:17.282Z,0.00
2019-02-28T04:27:16.272Z,0.00
2019-02-28T04:28:18.679Z,0.00
2019-02-28T04:29:16.260Z,0.00
2019-02-28T04:30:16.243Z,0.00
2019-02-28T04:31:20.037Z,0.00
2019-02-28T04:32:16.226Z,0.00
2019-02-28T04:33:16.210Z,0.00
2019-02-28T04:34:16.240Z,0.00
2019-02-28T04:35:16.193Z,0.00
2019-02-28T04:36:16.181Z,0.00
2019-02-28T04:37:16.165Z,0.00
2019-02-28T04:38:20.207Z,0.00
2019-02-28T04:39:17.161Z,0.00
2019-02-28T04:40:16.141Z,0.00
2019-02-28T04:41:16.125Z,0.00
2019-02-28T04:42:16.120Z,0.00
2019-02-28T04:43:16.107Z,0.00
2019-02-28T04:44:18.252Z,0.00
2019-02-28T04:45:16.085Z,0.00
2019-02-28T04:46:16.076Z,0.00
2019-02-28T04:47:16.065Z,0.00
2019-02-28T04:48:16.049Z,0.00
2019-02-28T04:49:16.051Z,0.00
2019-02-28T04:50:16.030Z,0.00
2019-02-28T04:51:16.022Z,0.00
2019-02-28T04:52:16.006Z,0.00
2019-02-28T04:53:18.974Z,0.00
2019-02-28T04:54:15.999Z,0.00
2019-02-28T04:55:15.974Z,0.00
2019-02-28T04:56:15.967Z,0.00
2019-02-28T04:57:17.313Z,0.00
2019-02-28T04:58:15.950Z,0.00
2019-02-28T04:59:15.956Z,0.00
2019-02-28T05:00:15.927Z,0.00
2019-02-28T05:01:15.911Z,0.00
2019-02-28T05:02:19.672Z,0.00
2019-02-28T05:03:15.896Z,0.00
2019-02-28T05:04:15.883Z,0.00
2019-02-28T05:05:15.889Z,0.00
2019-02-28T05:06:18.349Z,0.00
2019-02-28T05:07:16.847Z,0.00
2019-02-28T05:08:15.841Z,0.00
2019-02-28T05:09:15.833Z,0.00
2019-02-28T05:10:15.833Z,0.00
2019-02-28T05:11:15.806Z,0.00
2019-02-28T05:12:15.802Z,0.00
2019-02-28T05:13:15.792Z,0.00
2019-02-28T05:14:15.791Z,0.00
2019-02-28T05:15:15.777Z,0.00
2019-02-28T05:16:15.776Z,0.00
2019-02-28T05:17:15.745Z,0.00
2019-02-28T05:18:15.737Z,0.00
2019-02-28T05:19:15.727Z,0.00
2019-02-28T05:20:15.743Z,0.00
2019-02-28T05:21:16.496Z,0.00
2019-02-28T05:22:15.693Z,0.00
2019-02-28T05:23:15.694Z,0.00
2019-02-28T05:24:15.677Z,0.00
2019-02-28T05:25:18.713Z,0.00
2019-02-28T05:26:15.652Z,0.00
2019-02-28T05:27:15.653Z,0.00
2019-02-28T05:28:15.632Z,0.00
2019-02-28T05:29:15.620Z,0.00
2019-02-28T05:30:19.379Z,0.00
2019-02-28T05:31:15.601Z,0.00
2019-02-28T05:32:15.586Z,0.00
2019-02-28T05:33:15.584Z,0.00
2019-02-28T05:34:15.939Z,0.00
2019-02-28T05:35:15.573Z,0.00
2019-02-28T05:36:15.547Z,0.00
2019-02-28T05:37:15.535Z,0.00
2019-02-28T05:38:20.782Z,0.00
2019-02-28T05:39:16.513Z,4.00
2019-02-28T05:40:15.518Z,4.00
2019-02-28T05:41:16.030Z,0.00
2019-02-28T05:42:15.483Z,4.00
2019-02-28T05:43:15.476Z,4.00
2019-02-28T05:44:15.463Z,4.00
2019-02-28T05:45:15.855Z,4.00
2019-02-28T05:46:15.441Z,4.00
2019-02-28T05:47:15.429Z,8.00
2019-02-28T05:48:15.419Z,8.00
2019-02-28T05:49:15.409Z,12.00
2019-02-28T05:50:16.994Z,12.00
2019-02-28T05:51:15.389Z,12.00
2019-02-28T05:52:15.376Z,20.00
2019-02-28T05:53:15.370Z,20.00
2019-02-28T05:54:16.901Z,24.00
2019-02-28T05:55:15.375Z,32.00
2019-02-28T05:56:15.359Z,36.00
2019-02-28T05:57:15.328Z,48.00
2019-02-28T05:58:18.413Z,56.00
2019-02-28T05:59:15.306Z,64.00
2019-02-28T06:00:15.295Z,80.00
2019-02-28T06:01:15.295Z,92.00
2019-02-28T06:02:15.276Z,108.00
2019-02-28T06:03:15.266Z,124.00
2019-02-28T06:04:15.258Z,144.00
2019-02-28T06:05:15.245Z,164.00
2019-02-28T06:06:17.313Z,188.00
2019-02-28T06:07:15.222Z,212.00
2019-02-28T06:08:15.289Z,240.00
2019-02-28T06:09:15.202Z,268.00
2019-02-28T06:10:15.218Z,300.00
2019-02-28T06:11:15.376Z,332.00
2019-02-28T06:12:15.175Z,368.00
2019-02-28T06:13:15.348Z,408.00
2019-02-28T06:14:15.149Z,444.00
2019-02-28T06:15:15.137Z,484.00
2019-02-28T06:16:15.139Z,528.00
2019-02-28T06:17:17.302Z,572.00
2019-02-28T06:18:16.105Z,616.00
2019-02-28T06:19:15.106Z,660.00
2019-02-28T06:20:17.069Z,708.00
2019-02-28T06:21:15.089Z,756.00
2019-02-28T06:22:15.072Z,808.00
2019-02-28T06:23:15.054Z,860.00
2019-02-28T06:24:15.050Z,912.00
2019-02-28T06:25:22.089Z,964.00
2019-02-28T06:26:16.034Z,1016.00
2019-02-28T06:27:15.020Z,1068.00
2019-02-28T06:28:15.004Z,1124.00
2019-02-28T06:29:15.001Z,1184.00
2019-02-28T06:30:14.983Z,1244.00
2019-02-28T06:31:15.326Z,1300.00
2019-02-28T06:32:14.960Z,1360.00
2019-02-28T06:33:14.957Z,1420.00
2019-02-28T06:34:14.945Z,1484.00
2019-02-28T06:35:17.794Z,1544.00
2019-02-28T06:36:15.930Z,1608.00
2019-02-28T06:37:14.909Z,1688.00
2019-02-28T06:38:16.239Z,1764.00
2019-02-28T06:39:14.886Z,1836.00
2019-02-28T06:40:14.877Z,1912.00
2019-02-28T06:41:14.880Z,1984.00
2019-02-28T06:42:14.858Z,2060.00
2019-02-28T06:43:14.848Z,2136.00
2019-02-28T06:44:14.834Z,2212.00
2019-02-28T06:45:14.828Z,2292.00
2019-02-28T06:46:14.837Z,2368.00
2019-02-28T06:47:14.821Z,2452.00
2019-02-28T06:48:14.792Z,2532.00
2019-02-28T06:49:14.786Z,2616.00
2019-02-28T06:50:14.780Z,2692.00
2019-02-28T06:51:16.747Z,2764.00
2019-02-28T06:52:14.766Z,2852.00
2019-02-28T06:53:14.740Z,2924.00
2019-02-28T06:54:14.733Z,3008.00
2019-02-28T06:55:14.726Z,3116.00
2019-02-28T06:56:16.355Z,3212.00
2019-02-28T06:57:14.697Z,3316.00
2019-02-28T06:58:14.686Z,3432.00
2019-02-28T06:59:14.674Z,3536.00
2019-02-28T07:00:14.666Z,3632.00
2019-02-28T07:01:14.666Z,3688.00
2019-02-28T07:02:14.645Z,3728.00
2019-02-28T07:03:14.632Z,3804.00
2019-02-28T07:04:15.282Z,3896.00
2019-02-28T07:05:14.616Z,3988.00
2019-02-28T07:06:14.614Z,4064.00
2019-02-28T07:07:14.593Z,4140.00
2019-02-28T07:08:14.583Z,4236.00
2019-02-28T07:09:14.568Z,4352.00
2019-02-28T07:10:14.563Z,4448.00
2019-02-28T07:11:14.558Z,4520.00
2019-02-28T07:12:14.540Z,4572.00
2019-02-28T07:13:14.528Z,4656.00
2019-02-28T07:14:14.518Z,4752.00
2019-02-28T07:15:14.528Z,4864.00
2019-02-28T07:16:14.509Z,5052.00
2019-02-28T07:17:14.490Z,5096.00
2019-02-28T07:18:14.475Z,5008.00
2019-02-28T07:19:14.468Z,5004.00
2019-02-28T07:20:14.457Z,5020.00
2019-02-28T07:21:14.442Z,5060.00
2019-02-28T07:22:19.166Z,5092.00
2019-02-28T07:23:15.441Z,5144.00
2019-02-28T07:24:14.411Z,5188.00
2019-02-28T07:25:14.406Z,5248.00
2019-02-28T07:26:14.391Z,5272.00
2019-02-28T07:27:14.390Z,5340.00
2019-02-28T07:28:14.372Z,5360.00
2019-02-28T07:29:14.364Z,5400.00
2019-02-28T07:30:17.792Z,5424.00
2019-02-28T07:31:14.336Z,5464.00
2019-02-28T07:32:14.339Z,5504.00
2019-02-28T07:33:14.316Z,5552.00
2019-02-28T07:34:19.574Z,5580.00
2019-02-28T07:35:15.292Z,5616.00
2019-02-28T07:36:14.285Z,5636.00
2019-02-28T07:37:18.706Z,5684.00
2019-02-28T07:38:14.264Z,5732.00
2019-02-28T07:39:14.258Z,5704.00
2019-02-28T07:40:16.209Z,5628.00
2019-02-28T07:41:14.230Z,5708.00
2019-02-28T07:42:14.236Z,5864.00
2019-02-28T07:43:14.208Z,5928.00
2019-02-28T07:44:14.198Z,5920.00
2019-02-28T07:45:14.187Z,5916.00
2019-02-28T07:46:14.180Z,5992.00
2019-02-28T07:47:17.147Z,6084.00
2019-02-28T07:48:14.154Z,6160.00
2019-02-28T07:49:14.144Z,6224.00
2019-02-28T07:50:14.137Z,6264.00
2019-02-28T07:51:14.127Z,6320.00
2019-02-28T07:52:14.128Z,6388.00
2019-02-28T07:53:14.106Z,6424.00
2019-02-28T07:54:15.955Z,6468.00
2019-02-28T07:55:14.084Z,6496.00
2019-02-28T07:56:14.087Z,6528.00
2019-02-28T07:57:16.827Z,6576.00
2019-02-28T07:58:14.048Z,6628.00
2019-02-28T07:59:14.040Z,6684.00
2019-02-28T08:00:18.207Z,6760.00
2019-02-28T08:01:14.025Z,6848.00
2019-02-28T08:02:14.033Z,6920.00
2019-02-28T08:03:13.997Z,6996.00
2019-02-28T08:04:18.026Z,7036.00
2019-02-28T08:05:14.976Z,7096.00
2019-02-28T08:06:13.964Z,7140.00
2019-02-28T08:07:14.861Z,7192.00
2019-02-28T08:08:13.953Z,7256.00
2019-02-28T08:09:13.931Z,7352.00
2019-02-28T08:10:16.019Z,7436.00
2019-02-28T08:11:13.915Z,7484.00
2019-02-28T08:12:13.899Z,7516.00
2019-02-28T08:13:13.901Z,7552.00
2019-02-28T08:14:13.909Z,7572.00
2019-02-28T08:15:13.866Z,7572.00
2019-02-28T08:16:13.857Z,7620.00
2019-02-28T08:17:13.847Z,7644.00
2019-02-28T08:18:15.771Z,7680.00
2019-02-28T08:19:13.871Z,7756.00
2019-02-28T08:20:13.814Z,7844.00
2019-02-28T08:21:13.802Z,7924.00
2019-02-28T08:22:13.791Z,7972.00
2019-02-28T08:23:13.793Z,7988.00
2019-02-28T08:24:13.771Z,8032.00
2019-02-28T08:25:13.760Z,8116.00
2019-02-28T08:26:15.471Z,8152.00
2019-02-28T08:27:13.741Z,8240.00
2019-02-28T08:28:13.740Z,8340.00
2019-02-28T08:29:13.720Z,8364.00
2019-02-28T08:30:16.230Z,8608.00
2019-02-28T08:31:14.715Z,8636.00
2019-02-28T08:32:13.682Z,8708.00
2019-02-28T08:33:16.311Z,9184.00
2019-02-28T08:34:13.661Z,12600.00
2019-02-28T08:35:13.651Z,14688.00
2019-02-28T08:36:13.640Z,16192.00
2019-02-28T08:37:13.630Z,16640.00
2019-02-28T08:38:13.632Z,16992.00
2019-02-28T08:39:13.615Z,17344.00
2019-02-28T08:40:15.625Z,15040.00
2019-02-28T08:41:13.587Z,10896.00
2019-02-28T08:42:13.580Z,12652.00
2019-02-28T08:43:14.147Z,18336.00
2019-02-28T08:44:13.559Z,19648.00
2019-02-28T08:45:13.544Z,20352.00
2019-02-28T08:46:13.915Z,21088.00
2019-02-28T08:47:13.523Z,20416.00
2019-02-28T08:48:13.533Z,19168.00
2019-02-28T08:49:13.503Z,18496.00
2019-02-28T08:50:19.040Z,17984.00
2019-02-28T08:51:14.477Z,18592.00
2019-02-28T08:52:13.466Z,18720.00
2019-02-28T08:53:15.396Z,18624.00
2019-02-28T08:54:13.455Z,18752.00
2019-02-28T08:55:13.437Z,19232.00
2019-02-28T08:56:14.106Z,19392.00
2019-02-28T08:57:13.412Z,19744.00
2019-02-28T08:58:13.402Z,19872.00
2019-02-28T08:59:18.407Z,19872.00
2019-02-28T09:00:14.380Z,20192.00
2019-02-28T09:01:13.373Z,20512.00
2019-02-28T09:02:14.573Z,20448.00
2019-02-28T09:03:13.349Z,20224.00
2019-02-28T09:04:13.351Z,19968.00
2019-02-28T09:05:13.388Z,20128.00
2019-02-28T09:06:13.320Z,19904.00
2019-02-28T09:07:15.154Z,20288.00
2019-02-28T09:08:13.296Z,20768.00
2019-02-28T09:09:14.693Z,21312.00
2019-02-28T09:10:13.282Z,22048.00
2019-02-28T09:11:13.267Z,22912.00
2019-02-28T09:12:13.254Z,21984.00
2019-02-28T09:13:13.241Z,21472.00
2019-02-28T09:14:14.726Z,22176.00
2019-02-28T09:15:13.219Z,21312.00
2019-02-28T09:16:13.221Z,15712.00
2019-02-28T09:17:15.526Z,12956.00
2019-02-28T09:18:14.185Z,14492.00
2019-02-28T09:19:13.187Z,14452.00
2019-02-28T09:20:13.166Z,14088.00
2019-02-28T09:21:15.434Z,13592.00
2019-02-28T09:22:13.144Z,14160.00
2019-02-28T09:23:13.132Z,15520.00
2019-02-28T09:24:13.667Z,17312.00
2019-02-28T09:25:13.113Z,19360.00
2019-02-28T09:26:13.102Z,22080.00
2019-02-28T09:27:13.089Z,23232.00
2019-02-28T09:28:13.841Z,22784.00
2019-02-28T09:29:13.081Z,24832.00
2019-02-28T09:30:13.058Z,27200.00
2019-02-28T09:31:13.050Z,26016.00
2019-02-28T09:32:13.550Z,29504.00
2019-02-28T09:33:13.031Z,28288.00
2019-02-28T09:34:13.024Z,28896.00
2019-02-28T09:35:14.542Z,28896.00
2019-02-28T09:36:12.993Z,29120.00
2019-02-28T09:37:12.983Z,29856.00
2019-02-28T09:38:13.777Z,31264.00
2019-02-28T09:39:12.977Z,33056.00
2019-02-28T09:40:12.950Z,32896.00
2019-02-28T09:41:12.944Z,32192.00
2019-02-28T09:42:15.698Z,28704.00
2019-02-28T09:43:12.930Z,29600.00
2019-02-28T09:44:12.924Z,25184.00
2019-02-28T09:45:12.896Z,16096.00
2019-02-28T09:46:15.579Z,24448.00
2019-02-28T09:47:12.884Z,32416.00
2019-02-28T09:48:12.865Z,34048.00
2019-02-28T09:49:13.109Z,34848.00
2019-02-28T09:50:12.851Z,26656.00
2019-02-28T09:51:12.832Z,33152.00
2019-02-28T09:52:12.821Z,38528.00
2019-02-28T09:53:15.527Z,39200.00
2019-02-28T09:54:12.812Z,38208.00
2019-02-28T09:55:12.788Z,37088.00
2019-02-28T09:56:12.780Z,36288.00
2019-02-28T09:57:15.370Z,36288.00
2019-02-28T09:58:13.756Z,37248.00
2019-02-28T09:59:12.755Z,37504.00
2019-02-28T10:00:12.770Z,37504.00
2019-02-28T10:01:12.726Z,36320.00
2019-02-28T10:02:12.721Z,34848.00
2019-02-28T10:03:15.533Z,32192.00
2019-02-28T10:04:13.707Z,30656.00
2019-02-28T10:05:12.684Z,31840.00
2019-02-28T10:06:13.444Z,27904.00
2019-02-28T10:07:12.660Z,37888.00
2019-02-28T10:08:12.650Z,37504.00
2019-02-28T10:09:12.655Z,27104.00
2019-02-28T10:10:13.857Z,21408.00
2019-02-28T10:11:12.619Z,23840.00
2019-02-28T10:12:12.608Z,33600.00
2019-02-28T10:13:14.531Z,36768.00
2019-02-28T10:14:13.615Z,38400.00
2019-02-28T10:15:12.581Z,35840.00
2019-02-28T10:16:13.644Z,33696.00
2019-02-28T10:17:12.556Z,35904.00
2019-02-28T10:18:12.545Z,37824.00
2019-02-28T10:19:13.394Z,39520.00
2019-02-28T10:20:12.533Z,38176.00
2019-02-28T10:21:12.515Z,35488.00
2019-02-28T10:22:12.930Z,36224.00
2019-02-28T10:23:12.489Z,37184.00
2019-02-28T10:24:12.479Z,36448.00
2019-02-28T10:25:12.485Z,35424.00
2019-02-28T10:26:14.372Z,35616.00
2019-02-28T10:27:12.449Z,37504.00
2019-02-28T10:28:12.444Z,32736.00
2019-02-28T10:29:12.427Z,22016.00
2019-02-28T10:30:15.765Z,24480.00
2019-02-28T10:31:12.404Z,33632.00
2019-02-28T10:32:12.396Z,35136.00
2019-02-28T10:33:14.253Z,36480.00
2019-02-28T10:34:12.380Z,35840.00
2019-02-28T10:35:12.373Z,34816.00
2019-02-28T10:36:12.804Z,31712.00
2019-02-28T10:37:12.342Z,39744.00
2019-02-28T10:38:12.332Z,40128.00
2019-02-28T10:39:12.318Z,40096.00
2019-02-28T10:40:14.151Z,40320.00
2019-02-28T10:41:15.379Z,41312.00
2019-02-28T10:42:12.290Z,41408.00
2019-02-28T10:43:15.436Z,41472.00
2019-02-28T10:44:12.268Z,40608.00
2019-02-28T10:45:12.267Z,32512.00
2019-02-28T10:46:13.339Z,21728.00
2019-02-28T10:47:12.233Z,28352.00
2019-02-28T10:48:12.223Z,39264.00
2019-02-28T10:49:12.212Z,35040.00
2019-02-28T10:50:12.216Z,26880.00
2019-02-28T10:51:14.194Z,23072.00
2019-02-28T10:52:12.182Z,23744.00
2019-02-28T10:53:12.173Z,25184.00
2019-02-28T10:54:14.546Z,32896.00
2019-02-28T10:55:12.164Z,37568.00
2019-02-28T10:56:12.140Z,40288.00
2019-02-28T10:57:12.132Z,33536.00
2019-02-28T10:58:12.522Z,23008.00
2019-02-28T10:59:12.108Z,34656.00
2019-02-28T11:00:12.114Z,39040.00
2019-02-28T11:01:12.087Z,41696.00
2019-02-28T11:02:13.940Z,42528.00
2019-02-28T11:03:13.067Z,43360.00
2019-02-28T11:04:12.054Z,45344.00
2019-02-28T11:05:12.057Z,44928.00
2019-02-28T11:06:12.034Z,30112.00
2019-02-28T11:07:12.022Z,32192.00
2019-02-28T11:08:12.775Z,48032.00
2019-02-28T11:09:12.001Z,49760.00
2019-02-28T11:10:11.990Z,45984.00
2019-02-28T11:11:11.990Z,48384.00
2019-02-28T11:12:11.970Z,44480.00
2019-02-28T11:13:11.961Z,28224.00
2019-02-28T11:14:11.953Z,34048.00
2019-02-28T11:15:13.905Z,45952.00
2019-02-28T11:16:11.955Z,50560.00
2019-02-28T11:17:13.782Z,49440.00
2019-02-28T11:18:11.926Z,49504.00
2019-02-28T11:19:13.811Z,48224.00
2019-02-28T11:20:21.792Z,50272.00
2019-02-28T11:21:12.884Z,38976.00
2019-02-28T11:22:11.868Z,30688.00
2019-02-28T11:23:14.772Z,45920.00
2019-02-28T11:24:11.842Z,46816.00
2019-02-28T11:25:11.834Z,38432.00
2019-02-28T11:26:11.832Z,30848.00
2019-02-28T11:27:11.810Z,23232.00
2019-02-28T11:28:11.808Z,26304.00
2019-02-28T11:29:11.799Z,38656.00
2019-02-28T11:30:11.779Z,43424.00
2019-02-28T11:31:11.779Z,31072.00
2019-02-28T11:32:11.757Z,30496.00
2019-02-28T11:33:11.753Z,46752.00
2019-02-28T11:34:15.029Z,49888.00
2019-02-28T11:35:11.728Z,48384.00
2019-02-28T11:36:11.759Z,45472.00
2019-02-28T11:37:12.790Z,31616.00
2019-02-28T11:38:11.698Z,35584.00
2019-02-28T11:39:11.685Z,44608.00
2019-02-28T11:40:11.692Z,44928.00
2019-02-28T11:41:11.678Z,33440.00
2019-02-28T11:42:11.655Z,37824.00
2019-02-28T11:43:11.644Z,43424.00
2019-02-28T11:44:11.999Z,26080.00
2019-02-28T11:45:11.624Z,27680.00
2019-02-28T11:46:11.626Z,38592.00
2019-02-28T11:47:12.040Z,23072.00
2019-02-28T11:48:12.884Z,18240.00
2019-02-28T11:49:13.623Z,19360.00
2019-02-28T11:50:11.975Z,28576.00
2019-02-28T11:51:11.569Z,41888.00
2019-02-28T11:52:11.549Z,43648.00
2019-02-28T11:53:11.539Z,45792.00
2019-02-28T11:54:12.310Z,47744.00
2019-02-28T11:55:11.521Z,46560.00
2019-02-28T11:56:11.523Z,42080.00
2019-02-28T11:57:11.494Z,33952.00
2019-02-28T11:58:16.587Z,39680.00
2019-02-28T11:59:12.473Z,46432.00
2019-02-28T12:00:13.434Z,45504.00
2019-02-28T12:01:11.497Z,45440.00
2019-02-28T12:02:11.442Z,45248.00
2019-02-28T12:03:11.433Z,43552.00
2019-02-28T12:04:11.419Z,43072.00
2019-02-28T12:05:12.338Z,44160.00
2019-02-28T12:06:11.412Z,43712.00
2019-02-28T12:07:11.387Z,42368.00
2019-02-28T12:08:11.379Z,37952.00
2019-02-28T12:09:11.371Z,27648.00
2019-02-28T12:10:11.356Z,24384.00
2019-02-28T12:11:11.355Z,35456.00
2019-02-28T12:12:11.335Z,44672.00
2019-02-28T12:13:11.323Z,44544.00
2019-02-28T12:14:11.313Z,43456.00
2019-02-28T12:15:11.303Z,43456.00
2019-02-28T12:16:11.303Z,42496.00
2019-02-28T12:17:11.283Z,40800.00
2019-02-28T12:18:11.271Z,41408.00
2019-02-28T12:19:12.479Z,44512.00
2019-02-28T12:20:11.253Z,44256.00
2019-02-28T12:21:11.250Z,34368.00
2019-02-28T12:22:12.148Z,36288.00
2019-02-28T12:23:11.219Z,46688.00
2019-02-28T12:24:11.207Z,46496.00
2019-02-28T12:25:11.197Z,46912.00
2019-02-28T12:26:14.168Z,47360.00
2019-02-28T12:27:11.176Z,48832.00
2019-02-28T12:28:11.164Z,48224.00
2019-02-28T12:29:13.053Z,46688.00
2019-02-28T12:30:11.145Z,41600.00
2019-02-28T12:31:11.134Z,36672.00